sensor_id;sensor_type;location;lat;lon;timestamp;pressure;altitude;pressure_sealevel;temperature;humidity
82171;BME280;71755;48.038;14.346;2024-01-11T00:00:33;98445.84;;;-9.48;94.31
82171;BME280;71755;48.038;14.346;2024-01-11T00:02:59;98444.78;;;-9.58;94.61
82171;BME280;71755;48.038;14.346;2024-01-11T00:05:24;98450.38;;;-9.51;95.32
82171;BME280;71755;48.038;14.346;2024-01-11T00:07:50;98449.75;;;-9.55;95.60
82171;BME280;71755;48.038;14.346;2024-01-11T00:10:16;98448.09;;;-9.56;95.36
82171;BME280;71755;48.038;14.346;2024-01-11T00:12:43;98445.59;;;-9.57;95.27
82171;BME280;71755;48.038;14.346;2024-01-11T00:15:08;98438.50;;;-9.68;96.24
82171;BME280;71755;48.038;14.346;2024-01-11T00:17:36;98445.63;;;-9.71;96.49
82171;BME280;71755;48.038;14.346;2024-01-11T00:20:02;98445.91;;;-9.76;96.72
82171;BME280;71755;48.038;14.346;2024-01-11T00:22:28;98444.25;;;-9.77;97.04
82171;BME280;71755;48.038;14.346;2024-01-11T00:24:54;98439.47;;;-9.83;96.63
82171;BME280;71755;48.038;14.346;2024-01-11T00:27:20;98438.66;;;-9.84;96.43
82171;BME280;71755;48.038;14.346;2024-01-11T00:29:46;98440.94;;;-9.79;96.29
82171;BME280;71755;48.038;14.346;2024-01-11T00:32:12;98438.16;;;-9.62;96.12
82171;BME280;71755;48.038;14.346;2024-01-11T00:34:37;98445.41;;;-9.54;95.79
82171;BME280;71755;48.038;14.346;2024-01-11T00:37:04;98445.63;;;-9.71;95.91
82171;BME280;71755;48.038;14.346;2024-01-11T00:39:30;98446.94;;;-9.79;95.82
82171;BME280;71755;48.038;14.346;2024-01-11T00:41:56;98448.41;;;-9.74;96.00
82171;BME280;71755;48.038;14.346;2024-01-11T00:44:21;98448.34;;;-9.87;95.71
82171;BME280;71755;48.038;14.346;2024-01-11T00:46:47;98447.31;;;-9.85;95.59
82171;BME280;71755;48.038;14.346;2024-01-11T00:49:13;98455.53;;;-9.78;95.50
82171;BME280;71755;48.038;14.346;2024-01-11T00:51:39;98453.88;;;-9.79;95.53
82171;BME280;71755;48.038;14.346;2024-01-11T00:54:05;98453.22;;;-9.83;95.79
82171;BME280;71755;48.038;14.346;2024-01-11T00:56:31;98457.09;;;-9.75;96.00
82171;BME280;71755;48.038;14.346;2024-01-11T00:58:57;98453.31;;;-9.84;95.85
82171;BME280;71755;48.038;14.346;2024-01-11T01:01:23;98460.34;;;-9.86;95.94
82171;BME280;71755;48.038;14.346;2024-01-11T01:03:49;98458.00;;;-9.77;95.70
82171;BME280;71755;48.038;14.346;2024-01-11T01:06:15;98464.94;;;-9.63;95.92
82171;BME280;71755;48.038;14.346;2024-01-11T01:08:41;98460.28;;;-9.58;95.34
82171;BME280;71755;48.038;14.346;2024-01-11T01:11:07;98461.22;;;-9.59;95.32
82171;BME280;71755;48.038;14.346;2024-01-11T01:13:32;98468.25;;;-9.75;94.76
82171;BME280;71755;48.038;14.346;2024-01-11T01:15:58;98468.97;;;-10.00;94.82
82171;BME280;71755;48.038;14.346;2024-01-11T01:18:24;98464.34;;;-9.95;95.12
82171;BME280;71755;48.038;14.346;2024-01-11T01:20:50;98459.91;;;-9.93;95.46
82171;BME280;71755;48.038;14.346;2024-01-11T01:23:17;98459.47;;;-9.99;95.80
82171;BME280;71755;48.038;14.346;2024-01-11T01:25:43;98462.97;;;-10.00;95.89
82171;BME280;71755;48.038;14.346;2024-01-11T01:28:10;98472.19;;;-9.96;95.61
82171;BME280;71755;48.038;14.346;2024-01-11T01:30:36;98464.44;;;-9.96;95.42
82171;BME280;71755;48.038;14.346;2024-01-11T01:33:02;98466.47;;;-10.01;95.43
82171;BME280;71755;48.038;14.346;2024-01-11T01:35:28;98465.56;;;-10.00;95.61
82171;BME280;71755;48.038;14.346;2024-01-11T01:37:55;98463.06;;;-10.02;95.57
82171;BME280;71755;48.038;14.346;2024-01-11T01:40:21;98468.13;;;-10.00;95.21
82171;BME280;71755;48.038;14.346;2024-01-11T01:42:48;98475.50;;;-9.94;95.63
82171;BME280;71755;48.038;14.346;2024-01-11T01:45:14;98470.44;;;-9.96;95.56
82171;BME280;71755;48.038;14.346;2024-01-11T01:47:41;98472.72;;;-9.91;95.21
82171;BME280;71755;48.038;14.346;2024-01-11T01:50:10;98476.44;;;-9.95;95.50
82171;BME280;71755;48.038;14.346;2024-01-11T01:52:39;98469.41;;;-9.93;95.61
82171;BME280;71755;48.038;14.346;2024-01-11T01:55:09;98469.75;;;-9.85;95.04
82171;BME280;71755;48.038;14.346;2024-01-11T01:57:36;98478.34;;;-9.85;94.94
82171;BME280;71755;48.038;14.346;2024-01-11T02:00:02;98479.38;;;-9.87;94.82
82171;BME280;71755;48.038;14.346;2024-01-11T02:02:31;98479.66;;;-9.92;94.90
82171;BME280;71755;48.038;14.346;2024-01-11T02:04:59;98478.44;;;-9.86;95.12
82171;BME280;71755;48.038;14.346;2024-01-11T02:07:25;98473.81;;;-9.81;94.67
82171;BME280;71755;48.038;14.346;2024-01-11T02:09:51;98462.75;;;-9.83;93.71
82171;BME280;71755;48.038;14.346;2024-01-11T02:12:17;98459.03;;;-9.79;93.31
82171;BME280;71755;48.038;14.346;2024-01-11T02:14:44;98462.91;;;-9.72;92.70
82171;BME280;71755;48.038;14.346;2024-01-11T02:17:10;98464.00;;;-9.62;92.22
82171;BME280;71755;48.038;14.346;2024-01-11T02:19:36;98471.66;;;-9.60;92.28
82171;BME280;71755;48.038;14.346;2024-01-11T02:22:15;98463.19;;;-9.62;92.05
82171;BME280;71755;48.038;14.346;2024-01-11T02:24:45;98467.72;;;-9.66;92.12
82171;BME280;71755;48.038;14.346;2024-01-11T02:27:11;98468.53;;;-9.65;92.02
82171;BME280;71755;48.038;14.346;2024-01-11T02:29:37;98475.47;;;-9.66;91.77
82171;BME280;71755;48.038;14.346;2024-01-11T02:32:04;98465.03;;;-9.64;91.69
82171;BME280;71755;48.038;14.346;2024-01-11T02:34:32;98458.94;;;-9.63;91.34
82171;BME280;71755;48.038;14.346;2024-01-11T02:36:58;98457.72;;;-9.72;90.79
82171;BME280;71755;48.038;14.346;2024-01-11T02:39:25;98461.22;;;-9.73;90.34
82171;BME280;71755;48.038;14.346;2024-01-11T02:41:53;98457.28;;;-9.79;90.18
82171;BME280;71755;48.038;14.346;2024-01-11T02:44:19;98461.44;;;-9.76;89.74
82171;BME280;71755;48.038;14.346;2024-01-11T02:46:45;98454.59;;;-9.77;89.89
82171;BME280;71755;48.038;14.346;2024-01-11T02:49:11;98455.00;;;-9.83;89.75
82171;BME280;71755;48.038;14.346;2024-01-11T02:51:37;98455.38;;;-9.89;89.37
82171;BME280;71755;48.038;14.346;2024-01-11T02:54:03;98460.72;;;-9.92;89.71
82171;BME280;71755;48.038;14.346;2024-01-11T02:56:29;98452.25;;;-9.94;89.91
82171;BME280;71755;48.038;14.346;2024-01-11T02:58:55;98453.81;;;-9.92;90.26
82171;BME280;71755;48.038;14.346;2024-01-11T03:01:21;98455.56;;;-9.92;91.52
82171;BME280;71755;48.038;14.346;2024-01-11T03:03:46;98451.22;;;-9.92;91.75
82171;BME280;71755;48.038;14.346;2024-01-11T03:06:12;98449.94;;;-9.99;92.12
82171;BME280;71755;48.038;14.346;2024-01-11T03:08:39;98455.47;;;-10.05;92.76
82171;BME280;71755;48.038;14.346;2024-01-11T03:11:05;98450.44;;;-10.21;93.38
82171;BME280;71755;48.038;14.346;2024-01-11T03:13:31;98453.97;;;-10.36;94.69
82171;BME280;71755;48.038;14.346;2024-01-11T03:15:57;98435.31;;;-10.27;94.82
82171;BME280;71755;48.038;14.346;2024-01-11T03:18:23;98430.91;;;-10.25;94.72
82171;BME280;71755;48.038;14.346;2024-01-11T03:20:49;98428.88;;;-10.34;95.82
82171;BME280;71755;48.038;14.346;2024-01-11T03:23:14;98422.78;;;-10.33;96.67
82171;BME280;71755;48.038;14.346;2024-01-11T03:25:40;98424.16;;;-10.27;96.87
82171;BME280;71755;48.038;14.346;2024-01-11T03:28:06;98420.88;;;-10.17;96.53
82171;BME280;71755;48.038;14.346;2024-01-11T03:30:32;98408.59;;;-10.13;96.37
82171;BME280;71755;48.038;14.346;2024-01-11T03:32:58;98407.59;;;-10.11;96.47
82171;BME280;71755;48.038;14.346;2024-01-11T03:35:24;98403.78;;;-10.05;96.43
82171;BME280;71755;48.038;14.346;2024-01-11T03:37:50;98409.44;;;-9.98;96.89
82171;BME280;71755;48.038;14.346;2024-01-11T03:40:17;98407.19;;;-9.90;96.89
82171;BME280;71755;48.038;14.346;2024-01-11T03:42:43;98411.97;;;-9.84;96.65
82171;BME280;71755;48.038;14.346;2024-01-11T03:45:09;98404.34;;;-9.73;96.92
82171;BME280;71755;48.038;14.346;2024-01-11T03:47:35;98408.78;;;-9.61;96.42
82171;BME280;71755;48.038;14.346;2024-01-11T03:50:01;98406.91;;;-9.59;96.23
82171;BME280;71755;48.038;14.346;2024-01-11T03:52:27;98402.03;;;-9.63;96.03
82171;BME280;71755;48.038;14.346;2024-01-11T03:54:53;98397.63;;;-9.75;95.61
82171;BME280;71755;48.038;14.346;2024-01-11T03:57:18;98399.00;;;-9.70;95.49
82171;BME280;71755;48.038;14.346;2024-01-11T03:59:44;98393.63;;;-9.67;95.45
82171;BME280;71755;48.038;14.346;2024-01-11T04:02:11;98395.34;;;-9.80;95.68
82171;BME280;71755;48.038;14.346;2024-01-11T04:04:36;98391.09;;;-9.81;96.27
82171;BME280;71755;48.038;14.346;2024-01-11T04:07:02;98385.94;;;-9.81;95.84
82171;BME280;71755;48.038;14.346;2024-01-11T04:09:28;98387.38;;;-9.77;95.79
82171;BME280;71755;48.038;14.346;2024-01-11T04:11:54;98396.72;;;-9.74;95.37
82171;BME280;71755;48.038;14.346;2024-01-11T04:14:20;98401.03;;;-9.75;95.53
82171;BME280;71755;48.038;14.346;2024-01-11T04:16:46;98405.19;;;-9.72;95.85
82171;BME280;71755;48.038;14.346;2024-01-11T04:19:12;98409.59;;;-9.60;95.93
82171;BME280;71755;48.038;14.346;2024-01-11T04:21:38;98412.00;;;-9.57;95.89
82171;BME280;71755;48.038;14.346;2024-01-11T04:24:05;98406.75;;;-9.70;95.82
82171;BME280;71755;48.038;14.346;2024-01-11T04:26:34;98406.31;;;-9.77;95.85
82171;BME280;71755;48.038;14.346;2024-01-11T04:29:00;98416.94;;;-9.81;96.05
82171;BME280;71755;48.038;14.346;2024-01-11T04:31:27;98414.91;;;-9.76;96.10
82171;BME280;71755;48.038;14.346;2024-01-11T04:33:53;98410.34;;;-9.72;96.06
82171;BME280;71755;48.038;14.346;2024-01-11T04:36:19;98409.13;;;-9.67;96.01
82171;BME280;71755;48.038;14.346;2024-01-11T04:38:44;98411.59;;;-9.78;95.87
82171;BME280;71755;48.038;14.346;2024-01-11T04:41:14;98402.06;;;-9.78;95.59
82171;BME280;71755;48.038;14.346;2024-01-11T04:43:44;98411.00;;;-9.69;95.70
82171;BME280;71755;48.038;14.346;2024-01-11T04:46:20;98406.66;;;-9.68;95.56
82171;BME280;71755;48.038;14.346;2024-01-11T04:48:48;98394.66;;;-9.69;95.30
82171;BME280;71755;48.038;14.346;2024-01-11T04:51:18;98404.34;;;-9.73;95.38
82171;BME280;71755;48.038;14.346;2024-01-11T04:53:44;98418.41;;;-9.77;95.52
82171;BME280;71755;48.038;14.346;2024-01-11T04:56:13;98411.09;;;-9.70;95.46
82171;BME280;71755;48.038;14.346;2024-01-11T04:58:41;98412.50;;;-9.65;96.14
82171;BME280;71755;48.038;14.346;2024-01-11T05:01:11;98406.56;;;-9.67;96.24
82171;BME280;71755;48.038;14.346;2024-01-11T05:03:37;98409.97;;;-9.66;96.31
82171;BME280;71755;48.038;14.346;2024-01-11T05:06:03;98410.47;;;-9.74;96.92
82171;BME280;71755;48.038;14.346;2024-01-11T05:08:29;98406.59;;;-9.81;96.98
82171;BME280;71755;48.038;14.346;2024-01-11T05:10:55;98407.63;;;-9.84;97.11
82171;BME280;71755;48.038;14.346;2024-01-11T05:13:22;98413.63;;;-9.83;97.25
82171;BME280;71755;48.038;14.346;2024-01-11T05:15:48;98415.69;;;-9.88;97.30
82171;BME280;71755;48.038;14.346;2024-01-11T05:18:14;98425.19;;;-9.89;97.54
82171;BME280;71755;48.038;14.346;2024-01-11T05:20:40;98425.63;;;-9.82;97.67
82171;BME280;71755;48.038;14.346;2024-01-11T05:23:06;98425.63;;;-9.82;97.68
82171;BME280;71755;48.038;14.346;2024-01-11T05:25:33;98422.31;;;-9.84;97.60
82171;BME280;71755;48.038;14.346;2024-01-11T05:28:02;98426.47;;;-9.82;97.83
82171;BME280;71755;48.038;14.346;2024-01-11T05:30:30;98420.91;;;-9.75;98.29
82171;BME280;71755;48.038;14.346;2024-01-11T05:32:56;98427.63;;;-9.73;97.93
82171;BME280;71755;48.038;14.346;2024-01-11T05:35:22;98440.47;;;-9.71;97.92
82171;BME280;71755;48.038;14.346;2024-01-11T05:37:54;98442.28;;;-9.59;98.51
82171;BME280;71755;48.038;14.346;2024-01-11T05:40:22;98444.78;;;-9.58;98.74
82171;BME280;71755;48.038;14.346;2024-01-11T05:42:48;98439.56;;;-9.43;99.26
82171;BME280;71755;48.038;14.346;2024-01-11T05:45:14;98441.94;;;-9.40;99.44
82171;BME280;71755;48.038;14.346;2024-01-11T05:47:43;98438.81;;;-9.46;99.15
82171;BME280;71755;48.038;14.346;2024-01-11T05:50:10;98431.06;;;-9.46;99.17
82171;BME280;71755;48.038;14.346;2024-01-11T05:52:38;98435.31;;;-9.44;99.27
82171;BME280;71755;48.038;14.346;2024-01-11T05:55:04;98440.28;;;-9.41;99.28
82171;BME280;71755;48.038;14.346;2024-01-11T05:57:30;98436.38;;;-9.34;99.51
82171;BME280;71755;48.038;14.346;2024-01-11T05:59:56;98443.69;;;-9.41;99.10
82171;BME280;71755;48.038;14.346;2024-01-11T06:02:22;98448.44;;;-9.48;98.90
82171;BME280;71755;48.038;14.346;2024-01-11T06:04:48;98455.56;;;-9.51;98.64
82171;BME280;71755;48.038;14.346;2024-01-11T06:07:15;98460.53;;;-9.48;98.73
82171;BME280;71755;48.038;14.346;2024-01-11T06:09:41;98466.56;;;-9.35;98.51
82171;BME280;71755;48.038;14.346;2024-01-11T06:12:07;98457.13;;;-9.22;98.53
82171;BME280;71755;48.038;14.346;2024-01-11T06:14:35;98453.19;;;-9.15;98.45
82171;BME280;71755;48.038;14.346;2024-01-11T06:17:01;98449.28;;;-9.07;98.41
82171;BME280;71755;48.038;14.346;2024-01-11T06:19:26;98455.72;;;-9.00;98.25
82171;BME280;71755;48.038;14.346;2024-01-11T06:21:52;98467.72;;;-8.99;98.38
82171;BME280;71755;48.038;14.346;2024-01-11T06:24:18;98472.16;;;-9.14;97.75
82171;BME280;71755;48.038;14.346;2024-01-11T06:26:44;98484.47;;;-9.18;98.35
82171;BME280;71755;48.038;14.346;2024-01-11T06:29:10;98484.88;;;-9.11;97.79
82171;BME280;71755;48.038;14.346;2024-01-11T06:31:36;98482.63;;;-9.03;98.02
82171;BME280;71755;48.038;14.346;2024-01-11T06:34:01;98482.44;;;-9.00;98.12
82171;BME280;71755;48.038;14.346;2024-01-11T06:36:27;98496.63;;;-8.93;97.69
82171;BME280;71755;48.038;14.346;2024-01-11T06:38:53;98499.03;;;-8.90;97.73
82171;BME280;71755;48.038;14.346;2024-01-11T06:41:19;98503.09;;;-8.86;97.71
82171;BME280;71755;48.038;14.346;2024-01-11T06:43:44;98509.41;;;-8.77;97.62
82171;BME280;71755;48.038;14.346;2024-01-11T06:46:10;98504.88;;;-8.73;97.56
82171;BME280;71755;48.038;14.346;2024-01-11T06:48:36;98503.63;;;-8.68;97.57
82171;BME280;71755;48.038;14.346;2024-01-11T06:51:03;98496.69;;;-8.67;97.55
82171;BME280;71755;48.038;14.346;2024-01-11T06:53:28;98498.75;;;-8.72;97.11
82171;BME280;71755;48.038;14.346;2024-01-11T06:55:54;98493.97;;;-8.91;97.15
82171;BME280;71755;48.038;14.346;2024-01-11T06:58:23;98491.63;;;-9.08;98.31
82171;BME280;71755;48.038;14.346;2024-01-11T07:00:49;98489.34;;;-9.13;99.45
82171;BME280;71755;48.038;14.346;2024-01-11T07:03:17;98485.28;;;-9.17;100.00
82171;BME280;71755;48.038;14.346;2024-01-11T07:05:44;98488.06;;;-9.20;100.00
82171;BME280;71755;48.038;14.346;2024-01-11T07:08:10;98498.75;;;-9.12;100.00
82171;BME280;71755;48.038;14.346;2024-01-11T07:10:35;98501.25;;;-9.10;100.00
82171;BME280;71755;48.038;14.346;2024-01-11T07:13:01;98500.84;;;-9.04;100.00
82171;BME280;71755;48.038;14.346;2024-01-11T07:15:27;98501.47;;;-9.01;100.00
82171;BME280;71755;48.038;14.346;2024-01-11T07:17:53;98489.88;;;-8.95;100.00
82171;BME280;71755;48.038;14.346;2024-01-11T07:20:19;98485.91;;;-8.87;100.00
82171;BME280;71755;48.038;14.346;2024-01-11T07:22:45;98479.78;;;-8.86;100.00
82171;BME280;71755;48.038;14.346;2024-01-11T07:25:11;98492.28;;;-8.92;100.00
82171;BME280;71755;48.038;14.346;2024-01-11T07:27:37;98489.63;;;-8.91;100.00
82171;BME280;71755;48.038;14.346;2024-01-11T07:30:03;98486.72;;;-8.86;100.00
82171;BME280;71755;48.038;14.346;2024-01-11T07:32:31;98484.22;;;-8.88;100.00
82171;BME280;71755;48.038;14.346;2024-01-11T07:34:57;98496.56;;;-8.78;100.00
82171;BME280;71755;48.038;14.346;2024-01-11T07:37:23;98495.13;;;-8.70;100.00
82171;BME280;71755;48.038;14.346;2024-01-11T07:39:51;98500.00;;;-8.65;100.00
82171;BME280;71755;48.038;14.346;2024-01-11T07:42:17;98501.75;;;-8.66;100.00
82171;BME280;71755;48.038;14.346;2024-01-11T07:44:44;98509.44;;;-8.64;100.00
82171;BME280;71755;48.038;14.346;2024-01-11T07:47:10;98512.53;;;-8.59;100.00
82171;BME280;71755;48.038;14.346;2024-01-11T07:49:37;98510.16;;;-8.62;100.00
82171;BME280;71755;48.038;14.346;2024-01-11T07:52:03;98526.22;;;-8.57;100.00
82171;BME280;71755;48.038;14.346;2024-01-11T07:54:30;98519.09;;;-8.54;100.00
82171;BME280;71755;48.038;14.346;2024-01-11T07:56:57;98515.47;;;-8.51;100.00
82171;BME280;71755;48.038;14.346;2024-01-11T07:59:26;98507.38;;;-8.59;100.00
82171;BME280;71755;48.038;14.346;2024-01-11T08:01:52;98508.81;;;-8.55;100.00
82171;BME280;71755;48.038;14.346;2024-01-11T08:04:19;98502.91;;;-8.57;100.00
82171;BME280;71755;48.038;14.346;2024-01-11T08:06:46;98514.56;;;-8.50;100.00
82171;BME280;71755;48.038;14.346;2024-01-11T08:09:12;98525.00;;;-8.52;100.00
82171;BME280;71755;48.038;14.346;2024-01-11T08:11:39;98522.53;;;-8.53;100.00
82171;BME280;71755;48.038;14.346;2024-01-11T08:14:07;98519.19;;;-8.55;100.00
82171;BME280;71755;48.038;14.346;2024-01-11T08:16:33;98520.88;;;-8.54;100.00
82171;BME280;71755;48.038;14.346;2024-01-11T08:18:58;98523.16;;;-8.49;100.00
82171;BME280;71755;48.038;14.346;2024-01-11T08:21:26;98528.75;;;-8.43;100.00
82171;BME280;71755;48.038;14.346;2024-01-11T08:23:52;98536.28;;;-8.27;100.00
82171;BME280;71755;48.038;14.346;2024-01-11T08:26:18;98545.84;;;-8.02;100.00
82171;BME280;71755;48.038;14.346;2024-01-11T08:28:48;98549.03;;;-7.86;100.00
82171;BME280;71755;48.038;14.346;2024-01-11T08:31:13;98542.41;;;-7.90;100.00
82171;BME280;71755;48.038;14.346;2024-01-11T08:33:39;98542.91;;;-7.85;100.00
82171;BME280;71755;48.038;14.346;2024-01-11T08:36:06;98546.56;;;-7.88;100.00
82171;BME280;71755;48.038;14.346;2024-01-11T08:38:32;98550.69;;;-7.85;100.00
82171;BME280;71755;48.038;14.346;2024-01-11T08:40:58;98548.84;;;-7.96;99.67
82171;BME280;71755;48.038;14.346;2024-01-11T08:43:25;98549.38;;;-8.16;100.00
82171;BME280;71755;48.038;14.346;2024-01-11T08:45:51;98556.91;;;-8.26;100.00
82171;BME280;71755;48.038;14.346;2024-01-11T08:48:17;98553.72;;;-8.16;100.00
82171;BME280;71755;48.038;14.346;2024-01-11T08:50:43;98555.91;;;-7.98;100.00
82171;BME280;71755;48.038;14.346;2024-01-11T08:53:09;98559.84;;;-7.92;100.00
82171;BME280;71755;48.038;14.346;2024-01-11T08:55:34;98553.84;;;-7.80;99.68
82171;BME280;71755;48.038;14.346;2024-01-11T08:58:01;98557.94;;;-7.65;99.17
82171;BME280;71755;48.038;14.346;2024-01-11T09:00:27;98570.13;;;-7.78;98.68
82171;BME280;71755;48.038;14.346;2024-01-11T09:02:53;98568.34;;;-7.90;98.51
82171;BME280;71755;48.038;14.346;2024-01-11T09:05:19;98562.50;;;-7.56;98.18
82171;BME280;71755;48.038;14.346;2024-01-11T09:07:45;98567.69;;;-7.43;97.26
82171;BME280;71755;48.038;14.346;2024-01-11T09:10:11;98569.78;;;-7.61;96.65
82171;BME280;71755;48.038;14.346;2024-01-11T09:12:38;98568.28;;;-7.39;96.36
82171;BME280;71755;48.038;14.346;2024-01-11T09:15:05;98567.97;;;-7.47;95.93
82171;BME280;71755;48.038;14.346;2024-01-11T09:17:31;98560.91;;;-7.33;95.60
82171;BME280;71755;48.038;14.346;2024-01-11T09:19:58;98563.00;;;-7.38;95.10
82171;BME280;71755;48.038;14.346;2024-01-11T09:22:24;98570.78;;;-7.50;95.04
82171;BME280;71755;48.038;14.346;2024-01-11T09:24:50;98563.41;;;-7.44;95.05
82171;BME280;71755;48.038;14.346;2024-01-11T09:27:16;98561.13;;;-7.48;94.77
82171;BME280;71755;48.038;14.346;2024-01-11T09:29:45;98543.41;;;-7.54;95.17
82171;BME280;71755;48.038;14.346;2024-01-11T09:32:15;98527.00;;;-7.42;95.08
82171;BME280;71755;48.038;14.346;2024-01-11T09:34:40;98533.19;;;-7.45;94.80
82171;BME280;71755;48.038;14.346;2024-01-11T09:37:06;98520.91;;;-7.67;95.35
82171;BME280;71755;48.038;14.346;2024-01-11T09:39:32;98535.84;;;-7.83;95.29
82171;BME280;71755;48.038;14.346;2024-01-11T09:41:59;98540.84;;;-7.67;95.76
82171;BME280;71755;48.038;14.346;2024-01-11T09:44:27;98541.19;;;-7.35;95.55
82171;BME280;71755;48.038;14.346;2024-01-11T09:46:53;98529.22;;;-7.25;95.35
82171;BME280;71755;48.038;14.346;2024-01-11T09:49:21;98524.28;;;-7.17;95.36
82171;BME280;71755;48.038;14.346;2024-01-11T09:51:49;98514.25;;;-7.21;94.60
82171;BME280;71755;48.038;14.346;2024-01-11T09:54:16;98508.63;;;-6.91;94.39
82171;BME280;71755;48.038;14.346;2024-01-11T09:56:46;98489.78;;;-6.71;93.53
82171;BME280;71755;48.038;14.346;2024-01-11T09:59:19;98485.84;;;-6.53;92.57
82171;BME280;71755;48.038;14.346;2024-01-11T10:01:48;98495.56;;;-6.33;92.21
82171;BME280;71755;48.038;14.346;2024-01-11T10:04:16;98486.38;;;-6.14;91.40
82171;BME280;71755;48.038;14.346;2024-01-11T10:06:42;98469.13;;;-5.93;90.34
82171;BME280;71755;48.038;14.346;2024-01-11T10:09:09;98477.47;;;-5.56;89.77
82171;BME280;71755;48.038;14.346;2024-01-11T10:11:37;98484.88;;;-5.40;89.21
82171;BME280;71755;48.038;14.346;2024-01-11T10:14:03;98475.53;;;-5.31;88.83
82171;BME280;71755;48.038;14.346;2024-01-11T10:16:31;98470.63;;;-5.25;87.42
82171;BME280;71755;48.038;14.346;2024-01-11T10:18:57;98465.22;;;-5.33;87.66
82171;BME280;71755;48.038;14.346;2024-01-11T10:21:24;98455.38;;;-5.84;89.14
82171;BME280;71755;48.038;14.346;2024-01-11T10:23:50;98461.44;;;-6.17;91.35
82171;BME280;71755;48.038;14.346;2024-01-11T10:26:17;98464.22;;;-6.42;92.87
82171;BME280;71755;48.038;14.346;2024-01-11T10:28:47;98447.59;;;-6.17;93.01
82171;BME280;71755;48.038;14.346;2024-01-11T10:31:14;98448.06;;;-6.12;92.63
82171;BME280;71755;48.038;14.346;2024-01-11T10:33:45;98456.81;;;-6.24;92.79
82171;BME280;71755;48.038;14.346;2024-01-11T10:36:11;98462.84;;;-6.24;92.98
82171;BME280;71755;48.038;14.346;2024-01-11T10:38:39;98459.97;;;-6.32;93.93
82171;BME280;71755;48.038;14.346;2024-01-11T10:41:06;98460.84;;;-5.98;93.47
82171;BME280;71755;48.038;14.346;2024-01-11T10:43:37;98448.91;;;-6.12;92.63
82171;BME280;71755;48.038;14.346;2024-01-11T10:46:04;98463.69;;;-6.01;92.73
82171;BME280;71755;48.038;14.346;2024-01-11T10:48:37;98445.63;;;-5.59;91.81
82171;BME280;71755;48.038;14.346;2024-01-11T10:51:08;98444.31;;;-5.43;90.77
82171;BME280;71755;48.038;14.346;2024-01-11T10:53:45;98462.81;;;-5.14;89.91
82171;BME280;71755;48.038;14.346;2024-01-11T10:56:14;98439.50;;;-5.15;89.04
82171;BME280;71755;48.038;14.346;2024-01-11T10:58:43;98447.91;;;-5.23;89.31
82171;BME280;71755;48.038;14.346;2024-01-11T11:01:12;98453.06;;;-5.44;89.45
82171;BME280;71755;48.038;14.346;2024-01-11T11:03:39;98453.69;;;-5.51;90.95
82171;BME280;71755;48.038;14.346;2024-01-11T11:06:09;98457.31;;;-5.43;91.34
82171;BME280;71755;48.038;14.346;2024-01-11T11:08:37;98457.91;;;-4.75;89.67
82171;BME280;71755;48.038;14.346;2024-01-11T11:11:04;98464.41;;;-4.49;87.66
82171;BME280;71755;48.038;14.346;2024-01-11T11:13:34;98458.19;;;-4.36;85.80
82171;BME280;71755;48.038;14.346;2024-01-11T11:16:01;98441.56;;;-4.35;85.68
82171;BME280;71755;48.038;14.346;2024-01-11T11:18:30;98420.97;;;-4.59;85.77
82171;BME280;71755;48.038;14.346;2024-01-11T11:20:57;98424.84;;;-5.27;89.44
82171;BME280;71755;48.038;14.346;2024-01-11T11:23:23;98423.44;;;-5.31;90.53
82171;BME280;71755;48.038;14.346;2024-01-11T11:25:49;98440.59;;;-5.29;90.71
82171;BME280;71755;48.038;14.346;2024-01-11T11:28:16;98442.38;;;-5.29;91.05
82171;BME280;71755;48.038;14.346;2024-01-11T11:30:44;98438.16;;;-4.78;89.46
82171;BME280;71755;48.038;14.346;2024-01-11T11:33:25;98431.72;;;-4.53;87.51
82171;BME280;71755;48.038;14.346;2024-01-11T11:35:56;98443.81;;;-4.73;87.55
82171;BME280;71755;48.038;14.346;2024-01-11T11:38:27;98448.38;;;-5.18;89.77
82171;BME280;71755;48.038;14.346;2024-01-11T11:40:58;98435.59;;;-4.47;88.33
82171;BME280;71755;48.038;14.346;2024-01-11T11:43:27;98424.56;;;-4.81;87.08
82171;BME280;71755;48.038;14.346;2024-01-11T11:45:53;98446.75;;;-4.98;89.09
82171;BME280;71755;48.038;14.346;2024-01-11T11:51:09;98453.47;;;-5.16;90.24
82171;BME280;71755;48.038;14.346;2024-01-11T11:53:37;98440.53;;;-5.07;89.40
82171;BME280;71755;48.038;14.346;2024-01-11T11:56:03;98423.84;;;-5.58;91.34
82171;BME280;71755;48.038;14.346;2024-01-11T11:58:31;98411.53;;;-5.45;90.99
82171;BME280;71755;48.038;14.346;2024-01-11T12:00:59;98392.06;;;-5.30;90.51
82171;BME280;71755;48.038;14.346;2024-01-11T12:03:36;98405.84;;;-5.39;91.31
82171;BME280;71755;48.038;14.346;2024-01-11T12:06:09;98425.53;;;-5.14;91.53
82171;BME280;71755;48.038;14.346;2024-01-11T12:08:42;98439.69;;;-4.75;89.35
82171;BME280;71755;48.038;14.346;2024-01-11T12:11:08;98446.81;;;-4.88;88.78
82171;BME280;71755;48.038;14.346;2024-01-11T12:13:35;98441.19;;;-4.73;89.20
82171;BME280;71755;48.038;14.346;2024-01-11T12:16:01;98436.84;;;-5.04;88.22
82171;BME280;71755;48.038;14.346;2024-01-11T12:18:28;98434.44;;;-4.96;88.74
82171;BME280;71755;48.038;14.346;2024-01-11T12:20:54;98427.38;;;-4.84;89.18
82171;BME280;71755;48.038;14.346;2024-01-11T12:23:20;98431.00;;;-4.96;88.51
82171;BME280;71755;48.038;14.346;2024-01-11T12:25:47;98425.91;;;-4.98;88.74
82171;BME280;71755;48.038;14.346;2024-01-11T12:28:13;98422.69;;;-4.90;88.56
82171;BME280;71755;48.038;14.346;2024-01-11T12:30:39;98412.25;;;-5.11;89.42
82171;BME280;71755;48.038;14.346;2024-01-11T12:33:05;98413.22;;;-5.23;89.49
82171;BME280;71755;48.038;14.346;2024-01-11T12:35:32;98403.69;;;-5.34;89.38
82171;BME280;71755;48.038;14.346;2024-01-11T12:38:07;98397.13;;;-4.96;89.10
82171;BME280;71755;48.038;14.346;2024-01-11T12:40:38;98390.78;;;-5.04;89.09
82171;BME280;71755;48.038;14.346;2024-01-11T12:43:06;98397.06;;;-4.44;87.06
82171;BME280;71755;48.038;14.346;2024-01-11T12:45:36;98406.03;;;-4.06;85.96
82171;BME280;71755;48.038;14.346;2024-01-11T12:48:02;98412.22;;;-3.38;83.79